KSHD/SHD METAR and TAF weather

Enter ICAO airport designator
Station Type Date Time Source
KSHD METAR 2021/03/06 04:35 UTC NOAA

KSHD 060435Z AUTO 00000KT 10SM CLR M01/M10 A3013 RMK AO2 T10081096


Station Type Date Time Source
KSHD Decoded METAR 2021/03/06 04:35 UTC NOAA

Staunton / Shenandoah, VA, United States (KSHD) 38-16N 078-54W
Mar 05, 2021 - 11:35 PM EST / 2021.03.06 0435 UTC
Wind: Calm:0
Visibility: 10 mile(s):0
Sky conditions: clear
Temperature: 30.6 F (-0.8 C)
Dew Point: 14.7 F (-9.6 C)
Relative Humidity: 51%
Pressure (altimeter): 30.13 in. Hg (1020 hPa)
ob: KSHD 060435Z AUTO 00000KT 10SM CLR M01/M10 A3013 RMK AO2 T10081096
cycle: 4

Station Type Date Time Source
KSHD TAF UTC NOAA

Error!

Example: see airport list